PT-0021 weather

Campo de Vôo de Benavente
Benavente, Santarém District, Portugal

Public forecast

Using degrees Celsius for public forecast. Weather courtesy of forecast.io.

Closest aviation weather report (METAR) to Campo de Vôo de Benavente

Report is more than 6 hours old.

Closest report is Alverca Air Base, 11.5 nm (21.3 km) W. Retrieved 2019/12/13 17:00 UTC (3 days ago):

LPAR 131700Z 30006KT 9999 FEW020 SCT035 16/12 Q1023

Closest aviation forecast (TAF) to Campo de Vôo de Benavente

Forecast is more than 12 hours old.

Closest forecast is Alverca Air Base, 11.5 nm (21.3 km) W. Retrieved 2019/12/11 18:00 UTC (5 days ago):

TAF LPAR 111703Z 1118/1203 36012KT 9999 FEW020 BECMG 1118/1120 34005KT